Time;durP1;ratioP1;P1;durP2;ratioP2;P2;SDS_P1;SDS_P2;PMS_P1;PMS_P2;Temp;Humidity;BMP_temperature;BMP_pressure;BME280_temperature;BME280_humidity;BME280_pressure;Samples;Min_cycle;Max_cycle;Signal;HPM_P1;HPM_P2
2022/09/18 00:01:25;;;;;;;2.33;1.83;;;;;;;19.20;63.21;93687.25;5075214;28;20201;-70
2022/09/18 00:03:57;;;;;;;3.85;2.05;;;;;;;18.97;64.09;93679.91;5075635;28;20536;-70
2022/09/18 00:06:25;;;;;;;2.47;2.00;;;;;;;18.78;64.45;93689.19;5075990;28;20270;-69
2022/09/18 00:08:53;;;;;;;2.58;1.88;;;;;;;18.57;65.12;93700.88;5075943;28;20204;-69
2022/09/18 00:11:22;;;;;;;2.40;1.90;;;;;;;18.36;65.77;93719.72;5075390;28;20185;-70
2022/09/18 00:13:49;;;;;;;1.90;1.80;;;;;;;18.16;65.53;93719.81;5075005;28;20237;-69
2022/09/18 00:16:17;;;;;;;1.52;1.42;;;;;;;18.01;65.73;93727.72;5076128;28;20185;-69
2022/09/18 00:18:44;;;;;;;1.70;1.23;;;;;;;17.80;65.49;93736.56;5075386;28;20648;-69
2022/09/18 00:21:15;;;;;;;1.75;1.30;;;;;;;17.56;65.00;93728.25;5076079;28;20185;-69
2022/09/18 00:23:42;;;;;;;1.88;1.13;;;;;;;17.39;64.69;93740.53;5074882;28;20201;-69
2022/09/18 00:26:11;;;;;;;1.10;1.05;;;;;;;17.22;65.05;93756.41;5074765;28;20189;-69
2022/09/18 00:28:38;;;;;;;0.98;0.98;;;;;;;17.04;64.44;93755.97;5075422;28;20196;-69
2022/09/18 00:31:05;;;;;;;1.10;1.00;;;;;;;16.91;64.24;93771.72;5074894;28;20205;-69
2022/09/18 00:33:32;;;;;;;0.82;0.82;;;;;;;16.75;64.66;93764.84;5075755;28;20190;-69
2022/09/18 00:36:01;;;;;;;1.02;1.02;;;;;;;16.68;64.61;93787.19;5074959;28;20197;-69
2022/09/18 00:38:31;;;;;;;0.93;0.90;;;;;;;16.64;64.23;93780.13;5074739;28;20192;-69
2022/09/18 00:40:58;;;;;;;1.17;0.75;;;;;;;16.54;63.06;93782.63;5075432;28;20593;-69
2022/09/18 00:43:27;;;;;;;0.85;0.60;;;;;;;16.39;62.63;93792.44;5074768;28;20269;-69
2022/09/18 00:45:56;;;;;;;0.73;0.73;;;;;;;16.21;61.89;93825.28;5074693;28;20212;-69
2022/09/18 00:48:25;;;;;;;0.88;0.63;;;;;;;16.10;61.85;93819.88;5074555;28;20231;-69
2022/09/18 00:50:52;;;;;;;1.27;0.70;;;;;;;15.94;61.47;93831.63;5074615;28;20642;-69
2022/09/18 00:53:18;;;;;;;0.80;0.80;;;;;;;15.82;62.12;93821.03;5074816;28;20203;-69
2022/09/18 00:55:47;;;;;;;0.60;0.60;;;;;;;15.79;62.24;93831.00;5075707;28;20185;-69
2022/09/18 00:58:14;;;;;;;0.70;0.70;;;;;;;15.67;61.79;93850.22;5074496;28;20201;-70
2022/09/18 01:00:41;;;;;;;0.88;0.65;;;;;;;15.54;62.53;93870.19;5074438;28;20526;-70
2022/09/18 01:03:07;;;;;;;1.17;0.65;;;;;;;15.43;62.58;93855.59;5075447;28;20196;-70
2022/09/18 01:05:44;;;;;;;0.50;0.50;;;;;;;15.38;63.77;93865.19;5075439;28;20189;-70
2022/09/18 01:08:26;;;;;;;0.50;0.50;;;;;;;15.25;63.83;93866.91;5075211;28;20208;-69
2022/09/18 01:11:05;;;;;;;0.50;0.50;;;;;;;15.16;64.24;93877.72;5074035;28;20201;-69
2022/09/18 01:13:37;;;;;;;0.50;0.50;;;;;;;15.07;64.18;93914.28;5074401;28;20293;-69
2022/09/18 01:16:09;;;;;;;0.70;0.70;;;;;;;14.96;63.85;93902.50;5075369;28;20258;-69
2022/09/18 01:18:40;;;;;;;0.60;0.60;;;;;;;14.88;64.85;93912.84;5074233;28;20193;-69
2022/09/18 01:21:10;;;;;;;0.50;0.50;;;;;;;14.84;64.12;93923.19;5074913;28;20204;-70
2022/09/18 01:23:58;;;;;;;0.70;0.70;;;;;;;14.81;65.08;93945.41;5075271;28;20186;-70
2022/09/18 01:26:42;;;;;;;0.60;0.60;;;;;;;14.75;65.59;93949.84;5075009;28;20192;-70
2022/09/18 01:29:17;;;;;;;0.77;0.50;;;;;;;14.66;65.34;93958.59;5074925;28;20182;-70
2022/09/18 01:31:47;;;;;;;0.50;0.50;;;;;;;14.60;65.24;93972.13;5075094;28;20189;-69
2022/09/18 01:34:17;;;;;;;0.60;0.60;;;;;;;14.60;64.88;93974.13;5074103;28;20602;-70
2022/09/18 01:36:47;;;;;;;0.65;0.55;;;;;;;14.58;65.45;93985.59;5074146;28;20205;-69
2022/09/18 01:39:17;;;;;;;0.60;0.60;;;;;;;14.47;65.21;94000.69;5078217;28;20197;-69
2022/09/18 01:41:49;;;;;;;0.50;0.50;;;;;;;14.41;65.42;94028.84;5078176;28;20205;-69
2022/09/18 01:44:21;;;;;;;0.50;0.50;;;;;;;14.38;65.58;94038.00;5078219;28;20276;-69
2022/09/18 01:46:49;;;;;;;0.60;0.60;;;;;;;14.37;64.95;94043.94;5079000;28;20215;-69
2022/09/18 01:49:19;;;;;;;0.50;0.50;;;;;;;14.26;63.92;94041.19;5079100;28;20196;-69
2022/09/18 01:51:51;;;;;;;0.60;0.60;;;;;;;14.20;64.67;94060.25;5078683;28;20189;-70
2022/09/18 01:54:20;;;;;;;1.00;0.60;;;;;;;14.07;63.64;94070.16;5077654;28;20262;-69
2022/09/18 01:56:48;;;;;;;0.70;0.70;;;;;;;14.01;64.06;94062.66;5078088;28;20197;-69
2022/09/18 01:59:21;;;;;;;0.52;0.52;;;;;;;14.02;63.95;94069.78;5078035;28;20204;-69
2022/09/18 02:01:49;;;;;;;0.50;0.50;;;;;;;13.96;65.55;94072.16;5077610;28;20201;-70
2022/09/18 02:04:19;;;;;;;0.50;0.50;;;;;;;13.90;65.31;94080.09;5078610;28;20189;-70
2022/09/18 02:06:54;;;;;;;0.70;0.70;;;;;;;13.90;65.03;94087.63;5078645;28;20200;-70
2022/09/18 02:09:21;;;;;;;0.43;0.43;;;;;;;13.83;63.35;94099.50;5077823;28;20269;-70
2022/09/18 02:11:50;;;;;;;0.50;0.50;;;;;;;13.77;62.51;94109.41;5077719;28;20193;-70
2022/09/18 02:14:20;;;;;;;0.50;0.50;;;;;;;13.68;62.49;94131.97;5077074;28;20291;-70
2022/09/18 02:16:49;;;;;;;0.60;0.60;;;;;;;13.61;62.40;94126.41;5077916;28;20201;-70
2022/09/18 02:19:21;;;;;;;0.70;0.70;;;;;;;13.57;62.42;94142.25;5077631;28;20201;-70
2022/09/18 02:21:48;;;;;;;0.65;0.65;;;;;;;13.61;62.68;94131.16;5078336;28;20205;-70
2022/09/18 02:24:18;;;;;;;0.90;0.70;;;;;;;13.61;63.25;94136.72;5077930;28;20189;-70
2022/09/18 02:26:46;;;;;;;0.50;0.50;;;;;;;13.58;63.01;94141.09;5077880;28;20255;-70
2022/09/18 02:29:13;;;;;;;0.50;0.50;;;;;;;13.58;63.15;94159.66;5077807;28;20201;-70
2022/09/18 02:31:41;;;;;;;0.60;0.60;;;;;;;13.52;64.14;94166.78;5077378;28;20201;-70
2022/09/18 02:34:09;;;;;;;0.70;0.70;;;;;;;13.42;64.29;94188.53;5077765;28;20534;-70
2022/09/18 02:36:47;;;;;;;0.70;0.70;;;;;;;13.44;64.99;94194.47;5078114;28;20181;-70
2022/09/18 02:39:23;;;;;;;0.90;0.70;;;;;;;13.43;64.36;94214.25;5078079;28;20185;-70
2022/09/18 02:41:59;;;;;;;0.70;0.70;;;;;;;13.39;62.69;94216.22;5077385;28;20589;-70
2022/09/18 02:44:31;;;;;;;1.48;0.73;;;;;;;13.39;62.13;94221.75;5077038;28;20189;-70
2022/09/18 02:47:04;;;;;;;0.60;0.60;;;;;;;13.37;62.47;94221.38;5077937;28;20208;-70
2022/09/18 02:49:47;;;;;;;0.63;0.60;;;;;;;13.37;62.85;94224.94;5076873;28;20196;-70
2022/09/18 02:52:16;;;;;;;0.80;0.80;;;;;;;13.33;61.68;94229.66;5076833;28;20200;-70
2022/09/18 02:54:49;;;;;;;0.70;0.70;;;;;;;13.30;62.45;94238.75;5077483;28;20181;-70
2022/09/18 02:57:19;;;;;;;0.82;0.80;;;;;;;13.21;61.81;94238.28;5077722;28;20199;-70
2022/09/18 02:59:48;;;;;;;0.80;0.80;;;;;;;13.14;61.67;94230.72;5077332;28;20193;-70
2022/09/18 03:02:17;;;;;;;1.00;1.00;;;;;;;13.11;61.20;94228.78;5076583;28;20201;-70
2022/09/18 03:04:44;;;;;;;0.82;0.82;;;;;;;13.06;61.06;94223.59;5077556;28;20675;-70
2022/09/18 03:07:13;;;;;;;0.98;0.80;;;;;;;13.08;61.99;94232.31;5077428;28;20200;-70
2022/09/18 03:09:40;;;;;;;1.05;1.05;;;;;;;13.11;60.96;94244.56;5076568;28;20201;-71
2022/09/18 03:12:07;;;;;;;4.45;1.23;;;;;;;13.08;61.26;94246.16;5076514;28;20197;-70
2022/09/18 03:14:34;;;;;;;1.23;1.15;;;;;;;13.00;61.45;94239.00;5076152;28;20235;-70
2022/09/18 03:17:01;;;;;;;1.00;1.00;;;;;;;12.96;61.50;94249.25;5077120;28;20196;-70
2022/09/18 03:19:30;;;;;;;1.00;1.00;;;;;;;12.93;62.73;94256.38;5077510;28;20192;-71
2022/09/18 03:21:57;;;;;;;1.05;0.90;;;;;;;12.93;62.48;94263.88;5076994;28;20598;-69
2022/09/18 03:24:24;;;;;;;0.88;0.88;;;;;;;12.94;62.93;94263.47;5076896;28;20193;-69
2022/09/18 03:26:51;;;;;;;0.80;0.80;;;;;;;12.93;62.57;94267.44;5075980;28;20217;-69
2022/09/18 03:29:18;;;;;;;1.00;1.00;;;;;;;12.93;62.86;94272.19;5077231;28;20650;-69
2022/09/18 03:31:45;;;;;;;1.27;1.02;;;;;;;12.90;62.41;94270.97;5077039;28;20224;-70
2022/09/18 03:34:12;;;;;;;1.00;1.00;;;;;;;12.86;63.37;94274.91;5075755;28;20208;-70
2022/09/18 03:36:40;;;;;;;1.08;1.08;;;;;;;12.84;63.66;94269.75;5076748;28;20195;-70
2022/09/18 03:39:07;;;;;;;1.00;1.00;;;;;;;12.78;63.79;94282.34;5076513;28;20200;-70
2022/09/18 03:41:33;;;;;;;1.35;1.30;;;;;;;12.79;62.78;94278.41;5075891;28;20209;-70
2022/09/18 03:44:00;;;;;;;1.05;1.00;;;;;;;12.80;62.86;94280.00;5075933;28;20197;-70
2022/09/18 03:46:27;;;;;;;1.20;1.20;;;;;;;12.79;62.32;94283.97;5076348;28;20190;-70
2022/09/18 03:48:54;;;;;;;1.17;1.17;;;;;;;12.76;62.29;94285.50;5076658;28;20197;-69
2022/09/18 03:51:21;;;;;;;1.02;1.02;;;;;;;12.69;62.41;94296.53;5076502;28;20220;-69
2022/09/18 03:53:49;;;;;;;1.08;1.08;;;;;;;12.66;62.91;94291.78;5076294;28;20512;-69
2022/09/18 03:56:17;;;;;;;1.00;1.00;;;;;;;12.68;62.14;94316.31;5075382;28;20284;-69
2022/09/18 03:58:43;;;;;;;1.20;1.10;;;;;;;12.67;61.85;94317.47;5076582;28;20207;-69
2022/09/18 04:01:12;;;;;;;1.20;1.20;;;;;;;12.70;62.12;94314.72;5076346;28;20185;-69
2022/09/18 04:03:39;;;;;;;1.30;1.20;;;;;;;12.71;62.07;94323.84;5075546;28;20205;-68
2022/09/18 04:06:07;;;;;;;1.38;1.30;;;;;;;12.70;61.09;94325.00;5075594;28;20224;-69
2022/09/18 04:08:34;;;;;;;1.80;1.70;;;;;;;12.68;61.11;94319.06;5076330;28;20240;-69
2022/09/18 04:11:03;;;;;;;1.20;1.20;;;;;;;12.65;61.16;94328.13;5075078;28;20189;-69
2022/09/18 04:13:30;;;;;;;2.00;1.90;;;;;;;12.61;62.20;94341.94;5075179;28;20232;-69
2022/09/18 04:15:57;;;;;;;1.58;1.48;;;;;;;12.61;62.36;94344.69;5076271;28;20189;-69
2022/09/18 04:18:23;;;;;;;2.03;1.80;;;;;;;12.62;61.98;94359.31;5075172;28;20193;-70
2022/09/18 04:20:50;;;;;;;1.65;1.45;;;;;;;12.61;61.99;94379.88;5076096;28;20197;-70
2022/09/18 04:23:17;;;;;;;1.70;1.60;;;;;;;12.62;61.29;94373.16;5076112;28;20200;-69
2022/09/18 04:25:44;;;;;;;1.63;1.52;;;;;;;12.61;62.06;94361.31;5075168;28;20609;-69
2022/09/18 04:28:12;;;;;;;1.23;1.23;;;;;;;12.57;62.77;94359.69;5075736;28;20675;-69
2022/09/18 04:30:39;;;;;;;0.93;0.93;;;;;;;12.53;63.36;94374.28;5074806;28;20197;-69
2022/09/18 04:33:06;;;;;;;1.70;1.60;;;;;;;12.49;64.56;94376.22;5074999;28;20201;-69
2022/09/18 04:35:33;;;;;;;1.80;1.70;;;;;;;12.50;64.93;94374.25;5075879;28;20191;-70
2022/09/18 04:38:00;;;;;;;1.70;1.60;;;;;;;12.48;65.44;94380.16;5074670;28;20204;-69
2022/09/18 04:40:28;;;;;;;1.20;1.20;;;;;;;12.45;65.80;94378.13;5074835;28;20208;-69
2022/09/18 04:42:55;;;;;;;1.15;1.15;;;;;;;12.40;65.71;94386.78;5075375;28;20204;-69
2022/09/18 04:45:23;;;;;;;1.10;1.10;;;;;;;12.38;65.18;94396.63;5075754;28;20189;-69
2022/09/18 04:47:50;;;;;;;1.10;1.10;;;;;;;12.34;66.17;94410.44;5075255;28;20205;-69
2022/09/18 04:50:17;;;;;;;1.15;1.15;;;;;;;12.33;65.86;94408.06;5074803;28;20200;-69
2022/09/18 04:52:44;;;;;;;0.90;0.90;;;;;;;12.32;66.30;94409.25;5075287;28;20197;-71
2022/09/18 04:55:12;;;;;;;1.00;1.00;;;;;;;12.25;65.46;94413.50;5074580;28;20193;-69
2022/09/18 04:57:39;;;;;;;1.27;1.27;;;;;;;12.25;65.50;94429.31;5075299;28;20174;-69
2022/09/18 05:00:07;;;;;;;1.25;1.25;;;;;;;12.29;66.44;94435.66;5075483;28;20204;-69
2022/09/18 05:02:37;;;;;;;1.27;1.17;;;;;;;12.34;66.01;94446.38;5074942;28;20208;-70
2022/09/18 05:05:04;;;;;;;1.20;1.20;;;;;;;12.33;65.78;94439.25;5075148;28;20617;-71
2022/09/18 05:07:31;;;;;;;1.00;1.00;;;;;;;12.38;65.55;94447.22;5075264;28;20269;-72
2022/09/18 05:09:59;;;;;;;1.10;1.02;;;;;;;12.42;66.40;94459.13;5074510;28;20208;-72
2022/09/18 05:12:25;;;;;;;1.30;1.30;;;;;;;12.39;66.01;94470.94;5074606;28;20232;-72
2022/09/18 05:14:52;;;;;;;1.50;1.30;;;;;;;12.37;65.50;94481.56;5074883;28;20248;-71
2022/09/18 05:17:19;;;;;;;1.20;1.20;;;;;;;12.37;65.82;94483.56;5075355;28;20196;-72
2022/09/18 05:19:47;;;;;;;1.13;1.13;;;;;;;12.36;65.12;94477.22;5075300;28;20184;-72
2022/09/18 05:22:14;;;;;;;1.30;1.20;;;;;;;12.31;63.96;94490.59;5074000;28;20200;-71
2022/09/18 05:24:41;;;;;;;1.60;1.50;;;;;;;12.28;63.69;94492.16;5075274;28;20196;-71
2022/09/18 05:27:08;;;;;;;1.20;1.20;;;;;;;12.30;63.66;94492.56;5075166;28;20196;-71
2022/09/18 05:29:34;;;;;;;1.33;1.33;;;;;;;12.31;63.67;94496.94;5074259;28;20209;-71
2022/09/18 05:32:02;;;;;;;1.10;1.10;;;;;;;12.27;63.21;94490.53;5074168;28;20507;-71
2022/09/18 05:34:28;;;;;;;1.50;1.40;;;;;;;12.25;62.02;94481.84;5075084;28;20196;-72
2022/09/18 05:36:57;;;;;;;1.50;1.40;;;;;;;12.25;62.09;94501.19;5074220;28;20502;-72
2022/09/18 05:39:23;;;;;;;1.60;1.50;;;;;;;12.24;61.60;94503.16;5074517;28;20197;-71
2022/09/18 05:41:50;;;;;;;2.30;2.20;;;;;;;12.22;61.07;94497.22;5074248;28;20189;-71
2022/09/18 05:44:17;;;;;;;1.95;1.75;;;;;;;12.20;60.78;94501.50;5074936;28;20181;-73
2022/09/18 05:46:44;;;;;;;2.72;2.53;;;;;;;12.16;60.70;94493.19;5074933;28;20193;-72
2022/09/18 05:49:10;;;;;;;1.75;1.65;;;;;;;12.16;60.77;94506.22;5074611;28;20232;-72
2022/09/18 05:51:37;;;;;;;1.80;1.70;;;;;;;12.17;61.22;94505.84;5074971;28;20189;-71
2022/09/18 05:54:06;;;;;;;2.25;2.05;;;;;;;12.16;61.82;94509.78;5074931;28;20276;-71
2022/09/18 05:56:33;;;;;;;1.95;1.85;;;;;;;12.14;61.39;94511.34;5074905;28;20586;-71
2022/09/18 05:59:00;;;;;;;1.80;1.70;;;;;;;12.15;60.65;94499.88;5073636;28;20617;-71
2022/09/18 06:01:29;;;;;;;1.73;1.63;;;;;;;12.17;61.20;94499.53;5074916;28;20197;-71
2022/09/18 06:03:56;;;;;;;1.80;1.70;;;;;;;12.21;61.76;94511.44;5074734;28;20193;-71
2022/09/18 06:06:23;;;;;;;1.95;1.70;;;;;;;12.24;61.89;94517.00;5074721;28;20185;-71
2022/09/18 06:08:50;;;;;;;3.97;3.67;;;;;;;12.19;60.89;94520.06;5073470;28;20220;-71
2022/09/18 06:11:18;;;;;;;1.50;1.40;;;;;;;12.21;60.90;94517.75;5057164;28;20208;-71
2022/09/18 06:13:47;;;;;;;2.28;2.08;;;;;;;12.24;60.74;94513.44;5074560;28;20233;-71
2022/09/18 06:16:14;;;;;;;1.85;1.63;;;;;;;12.26;60.60;94522.13;5074714;28;20189;-71
2022/09/18 06:18:41;;;;;;;1.38;1.30;;;;;;;12.30;60.24;94531.25;5074665;28;20181;-71
2022/09/18 06:21:08;;;;;;;1.88;1.77;;;;;;;12.33;61.07;94532.50;5073997;28;20605;-71
2022/09/18 06:23:35;;;;;;;1.60;1.50;;;;;;;12.37;61.60;94545.19;5074644;28;20212;-71
2022/09/18 06:26:03;;;;;;;2.03;1.80;;;;;;;12.39;61.78;94547.59;5077446;28;20208;-71
2022/09/18 06:28:33;;;;;;;2.55;1.40;;;;;;;12.39;62.29;94551.13;5078188;28;20220;-71
2022/09/18 06:31:00;;;;;;;1.45;1.35;;;;;;;12.43;62.67;94553.94;5076993;28;20272;-71
2022/09/18 06:33:28;;;;;;;1.70;1.40;;;;;;;12.38;61.35;94557.84;5077310;28;20620;-69
2022/09/18 06:35:55;;;;;;;1.60;1.50;;;;;;;12.42;60.78;94566.19;5076903;28;20613;-71
2022/09/18 06:38:22;;;;;;;1.90;1.70;;;;;;;12.43;59.89;94562.25;5076890;28;20205;-71
2022/09/18 06:40:49;;;;;;;1.60;1.50;;;;;;;12.43;60.03;94570.53;5077053;28;20649;-71
2022/09/18 06:43:16;;;;;;;1.00;1.00;;;;;;;12.47;60.32;94563.09;5077447;28;20197;-71
2022/09/18 06:45:50;;;;;;;1.50;1.40;;;;;;;12.45;61.92;94574.50;5077918;28;20189;-71
2022/09/18 06:48:16;;;;;;;1.23;1.17;;;;;;;12.44;60.46;94581.22;5077041;28;20283;-72
2022/09/18 06:50:43;;;;;;;1.30;1.20;;;;;;;12.53;59.54;94575.41;5077390;28;20196;-71
2022/09/18 06:53:13;;;;;;;1.60;1.33;;;;;;;12.57;59.65;94579.00;5076957;28;20292;-71
2022/09/18 06:55:41;;;;;;;1.35;1.10;;;;;;;12.57;59.22;94578.22;5077518;28;20222;-70
2022/09/18 06:58:07;;;;;;;1.20;1.20;;;;;;;12.59;58.77;94579.41;5077721;28;20319;-71
2022/09/18 07:00:34;;;;;;;1.40;1.25;;;;;;;12.61;59.17;94588.16;5076826;28;20193;-71
2022/09/18 07:03:03;;;;;;;1.55;1.45;;;;;;;12.66;60.04;94584.25;5076944;28;20203;-72
2022/09/18 07:05:32;;;;;;;1.60;1.50;;;;;;;12.66;59.05;94584.25;5076655;28;20185;-70
2022/09/18 07:07:59;;;;;;;2.38;1.33;;;;;;;12.69;58.78;94589.81;5076975;28;20209;-72
2022/09/18 07:10:26;;;;;;;1.35;1.27;;;;;;;12.74;58.16;94591.44;5077088;28;20547;-72
2022/09/18 07:12:56;;;;;;;1.30;1.20;;;;;;;12.77;58.17;94588.72;5077416;28;20610;-71
2022/09/18 07:15:23;;;;;;;1.40;1.30;;;;;;;12.79;58.78;94595.84;5076901;28;20229;-71
2022/09/18 07:17:50;;;;;;;3.70;1.95;;;;;;;12.77;58.28;94597.00;5076531;28;20196;-71
2022/09/18 07:20:19;;;;;;;1.40;1.30;;;;;;;12.78;58.18;94595.03;5076346;28;20258;-71
2022/09/18 07:22:53;;;;;;;1.40;1.00;;;;;;;12.80;58.38;94598.22;5076962;28;20276;-71
2022/09/18 07:25:20;;;;;;;1.40;1.30;;;;;;;12.85;57.96;94602.63;5076914;28;20189;-71
2022/09/18 07:27:47;;;;;;;1.33;1.23;;;;;;;12.80;57.81;94609.31;5076290;28;20620;-71
2022/09/18 07:30:14;;;;;;;1.40;1.30;;;;;;;12.80;58.00;94605.75;5076760;28;20205;-71
2022/09/18 07:32:41;;;;;;;2.00;1.88;;;;;;;12.77;59.21;94610.06;5076141;28;20197;-71
2022/09/18 07:35:09;;;;;;;1.38;1.30;;;;;;;12.77;57.96;94615.59;5076310;28;20182;-71
2022/09/18 07:37:37;;;;;;;1.50;1.40;;;;;;;12.79;57.88;94616.03;5075993;28;20650;-71
2022/09/18 07:40:05;;;;;;;1.50;1.40;;;;;;;12.80;57.66;94614.03;5076689;28;20190;-71
2022/09/18 07:42:32;;;;;;;1.30;1.30;;;;;;;12.82;57.69;94634.66;5076562;28;20243;-71
2022/09/18 07:44:59;;;;;;;2.38;2.10;;;;;;;12.84;58.37;94625.94;5076256;28;20197;-71
2022/09/18 07:47:26;;;;;;;1.50;1.40;;;;;;;12.83;57.56;94625.16;5076440;28;20617;-71
2022/09/18 07:49:53;;;;;;;1.60;1.50;;;;;;;12.84;57.70;94621.22;5075746;28;20227;-71
2022/09/18 07:52:20;;;;;;;1.55;1.42;;;;;;;12.85;57.23;94622.00;5075651;28;20204;-71
2022/09/18 07:54:48;;;;;;;1.58;1.48;;;;;;;12.87;57.14;94625.19;5076386;28;20189;-71
2022/09/18 07:57:15;;;;;;;1.63;1.33;;;;;;;12.88;56.34;94624.81;5076334;28;20228;-71
2022/09/18 07:59:43;;;;;;;1.48;1.30;;;;;;;12.94;56.74;94630.81;5075275;28;20197;-71
2022/09/18 08:02:10;;;;;;;0.98;0.98;;;;;;;12.91;55.40;94637.09;5076403;28;20185;-72
2022/09/18 08:04:37;;;;;;;1.30;1.20;;;;;;;12.89;55.75;94639.44;5076457;28;20185;-71
2022/09/18 08:07:05;;;;;;;1.42;1.33;;;;;;;12.94;56.41;94630.81;5076136;28;20280;-72
2022/09/18 08:09:32;;;;;;;1.70;1.60;;;;;;;12.94;55.46;94639.13;5074995;28;20212;-71
2022/09/18 08:12:02;;;;;;;1.30;1.20;;;;;;;12.90;54.92;94636.31;5076268;28;20185;-71
2022/09/18 08:14:29;;;;;;;1.60;1.50;;;;;;;12.94;56.16;94642.69;5075824;28;20273;-71
2022/09/18 08:16:56;;;;;;;1.42;1.33;;;;;;;12.99;55.72;94638.78;5076191;28;20235;-71
2022/09/18 08:19:23;;;;;;;1.40;1.30;;;;;;;12.97;54.69;94635.59;5075876;28;20185;-71
2022/09/18 08:21:50;;;;;;;1.10;1.10;;;;;;;12.95;54.15;94640.72;5074961;28;20688;-71
2022/09/18 08:24:17;;;;;;;1.70;1.60;;;;;;;12.93;54.52;94626.47;5075766;28;20192;-72
2022/09/18 08:26:44;;;;;;;1.52;1.42;;;;;;;13.09;55.69;94651.94;5075984;28;20199;-71
2022/09/18 08:29:17;;;;;;;1.40;1.30;;;;;;;13.22;54.34;94633.09;5074909;28;20228;-71
2022/09/18 08:31:45;;;;;;;1.80;1.70;;;;;;;13.35;54.27;94634.44;5075023;28;20217;-71
2022/09/18 08:34:12;;;;;;;1.60;1.50;;;;;;;13.53;55.77;94620.75;5074946;28;20203;-71
2022/09/18 08:36:39;;;;;;;1.27;1.25;;;;;;;13.79;55.13;94635.59;5075550;28;20669;-70
2022/09/18 08:39:06;;;;;;;1.40;1.30;;;;;;;14.03;55.29;94637.75;5075482;28;20274;-70
2022/09/18 08:41:54;;;;;;;1.60;1.50;;;;;;;14.17;54.36;94639.84;5075547;28;20182;-70
2022/09/18 08:44:26;;;;;;;1.65;1.50;;;;;;;14.15;54.70;94645.75;5075641;28;20185;-72
2022/09/18 08:46:57;;;;;;;2.75;2.03;;;;;;;14.15;55.39;94653.28;5075150;28;20196;-72
2022/09/18 08:49:26;;;;;;;1.33;1.23;;;;;;;14.09;55.43;94652.06;5075480;28;20208;-71
2022/09/18 08:51:56;;;;;;;1.38;1.23;;;;;;;14.04;57.07;94641.34;5074979;28;20200;-71
2022/09/18 08:54:32;;;;;;;3.85;1.77;;;;;;;13.97;56.79;94634.53;5074563;28;20208;-72
2022/09/18 08:57:01;;;;;;;1.33;1.33;;;;;;;13.96;57.67;94651.56;5075440;28;20208;-72
2022/09/18 08:59:36;;;;;;;1.42;1.30;;;;;;;13.80;55.38;94662.13;5074989;28;20200;-71
2022/09/18 09:02:13;;;;;;;1.50;1.40;;;;;;;13.68;56.66;94664.00;5075434;28;20210;-71
2022/09/18 09:04:40;;;;;;;1.30;1.27;;;;;;;13.58;56.42;94670.28;5074587;28;20258;-71
2022/09/18 09:07:17;;;;;;;1.67;1.58;;;;;;;13.54;56.98;94669.44;5074655;28;20193;-71
2022/09/18 09:09:55;;;;;;;1.65;1.55;;;;;;;13.48;55.95;94671.75;5074325;28;20270;-71
2022/09/18 09:12:26;;;;;;;1.83;1.73;;;;;;;13.51;54.68;94666.63;5074001;28;20250;-71
2022/09/18 09:15:22;;;;;;;2.08;1.38;;;;;;;13.37;55.00;94681.16;5074750;28;20240;-71
2022/09/18 09:17:55;;;;;;;1.58;1.48;;;;;;;13.32;55.72;94673.16;5075315;28;20250;-71
2022/09/18 09:20:24;;;;;;;1.40;1.30;;;;;;;13.29;54.73;94673.91;5074202;28;20189;-71
2022/09/18 09:22:58;;;;;;;2.40;2.20;;;;;;;13.28;54.96;94686.19;5075819;28;20246;-71
2022/09/18 09:25:31;;;;;;;2.15;1.95;;;;;;;13.28;54.85;94695.28;5074905;28;20560;-71
2022/09/18 09:28:02;;;;;;;1.60;1.50;;;;;;;13.11;53.25;94702.22;5075102;28;20181;-71
2022/09/18 09:30:33;;;;;;;2.22;1.58;;;;;;;13.06;54.58;94698.97;5074962;28;20201;-71
2022/09/18 09:33:04;;;;;;;1.50;1.40;;;;;;;12.93;53.72;94709.50;5074776;28;20208;-70
2022/09/18 09:35:34;;;;;;;1.55;1.45;;;;;;;12.95;54.02;94694.09;5073724;28;20204;-72
2022/09/18 09:38:05;;;;;;;1.65;1.55;;;;;;;13.09;54.48;94707.31;5075124;28;20193;-72
2022/09/18 09:40:36;;;;;;;1.52;1.42;;;;;;;13.10;53.89;94708.09;5074003;28;20201;-71
2022/09/18 09:43:06;;;;;;;1.27;1.25;;;;;;;12.95;53.38;94713.47;5074996;28;20193;-71
2022/09/18 09:45:41;;;;;;;1.60;1.50;;;;;;;12.92;54.52;94716.19;5074268;28;20193;-72
2022/09/18 09:48:13;;;;;;;1.92;1.70;;;;;;;12.96;54.92;94722.56;5073945;28;20629;-71
2022/09/18 09:50:47;;;;;;;2.10;2.00;;;;;;;13.05;56.02;94730.59;5074368;28;20221;-71
2022/09/18 09:53:13;;;;;;;2.25;2.15;;;;;;;13.06;54.19;94723.88;5074922;28;20208;-71
2022/09/18 09:55:47;;;;;;;2.00;1.90;;;;;;;13.06;55.32;94724.66;5073563;28;20549;-71
2022/09/18 09:58:22;;;;;;;2.58;2.47;;;;;;;13.10;55.35;94719.97;5074199;28;20540;-71
2022/09/18 10:00:55;;;;;;;2.40;2.20;;;;;;;13.10;54.90;94722.75;5078760;28;20181;-70
2022/09/18 10:03:29;;;;;;;2.60;2.40;;;;;;;13.15;54.95;94719.66;5078516;28;20534;-70
2022/09/18 10:06:03;;;;;;;2.40;2.30;;;;;;;13.11;55.45;94721.59;5078447;28;20206;-70
2022/09/18 10:08:35;;;;;;;2.83;2.63;;;;;;;13.17;56.58;94724.81;5078301;28;20618;-71
2022/09/18 10:11:03;;;;;;;3.30;3.10;;;;;;;13.24;57.02;94719.38;5078585;28;20209;-71
2022/09/18 10:13:34;;;;;;;3.40;3.22;;;;;;;13.33;57.42;94719.09;5077272;28;20309;-71
2022/09/18 10:16:05;;;;;;;3.40;3.20;;;;;;;13.41;57.34;94735.41;5077597;28;20200;-71
2022/09/18 10:18:33;;;;;;;3.58;3.28;;;;;;;13.47;56.86;94733.06;5077736;28;20205;-72
2022/09/18 10:21:05;;;;;;;3.60;3.40;;;;;;;13.53;56.11;94742.66;5077344;28;20225;-71
2022/09/18 10:23:38;;;;;;;3.97;3.67;;;;;;;13.49;55.01;94742.59;5078483;28;20193;-72
2022/09/18 10:26:05;;;;;;;4.20;3.90;;;;;;;13.49;56.06;94753.69;5078056;28;20239;-71
2022/09/18 10:28:32;;;;;;;4.30;4.00;;;;;;;13.56;56.05;94743.88;5077327;28;20197;-71
2022/09/18 10:31:00;;;;;;;3.15;2.85;;;;;;;13.63;55.08;94741.97;5078144;28;20212;-71
2022/09/18 10:33:34;;;;;;;3.35;3.15;;;;;;;13.69;55.39;94750.75;5077620;28;20208;-71
2022/09/18 10:36:09;;;;;;;3.70;3.40;;;;;;;13.82;55.91;94749.28;5077447;28;20199;-71
2022/09/18 10:38:36;;;;;;;4.07;3.78;;;;;;;13.91;56.35;94744.22;5078065;28;20181;-71
2022/09/18 10:41:18;;;;;;;3.60;3.40;;;;;;;14.01;55.31;94756.56;5078085;28;20193;-71
2022/09/18 10:43:54;;;;;;;4.70;3.85;;;;;;;14.07;55.57;94760.59;5077811;28;20193;-71
2022/09/18 10:46:26;;;;;;;3.78;3.58;;;;;;;14.01;53.71;94751.03;5077887;28;20185;-70
2022/09/18 10:48:55;;;;;;;4.35;4.05;;;;;;;13.94;53.91;94757.31;5077917;28;20185;-71
2022/09/18 10:51:24;;;;;;;4.45;4.15;;;;;;;13.89;53.15;94768.75;5077053;28;20544;-71
2022/09/18 10:54:14;;;;;;;4.70;4.40;;;;;;;13.82;53.64;94765.91;5076635;28;20307;-72
2022/09/18 10:56:41;;;;;;;4.15;3.83;;;;;;;13.78;54.11;94773.38;5076815;28;20203;-72
2022/09/18 10:59:35;;;;;;;4.10;3.80;;;;;;;13.73;53.72;94770.97;5077671;28;20186;-71
2022/09/18 11:02:03;;;;;;;4.45;4.05;;;;;;;13.69;53.41;94764.59;5030358;28;20205;-71
2022/09/18 11:04:32;;;;;;;4.05;3.65;;;;;;;13.69;53.73;94775.69;5076638;28;20196;-71
2022/09/18 11:07:01;;;;;;;3.75;3.45;;;;;;;13.72;54.15;94772.13;5076501;28;20193;-71
2022/09/18 11:09:31;;;;;;;3.88;3.60;;;;;;;13.76;53.57;94772.97;5076765;28;20219;-71
2022/09/18 11:11:58;;;;;;;4.22;3.83;;;;;;;13.82;54.08;94778.97;5075982;28;20189;-71
2022/09/18 11:14:28;;;;;;;3.78;3.58;;;;;;;13.87;54.15;94784.16;5077313;28;20250;-71
2022/09/18 11:16:57;;;;;;;3.55;3.28;;;;;;;13.87;53.70;94781.38;5077612;28;20274;-71
2022/09/18 11:19:27;;;;;;;3.50;3.30;;;;;;;13.91;54.05;94771.94;5077007;28;20594;-71
2022/09/18 11:21:59;;;;;;;3.10;2.90;;;;;;;13.86;52.92;94780.59;5077281;28;20182;-71
2022/09/18 11:24:27;;;;;;;2.50;2.30;;;;;;;13.81;51.60;94780.16;5077143;28;20189;-71
2022/09/18 11:26:56;;;;;;;2.55;2.35;;;;;;;13.83;52.32;94783.31;5077253;28;20186;-71
2022/09/18 11:29:29;;;;;;;2.90;2.70;;;;;;;13.82;50.95;94785.31;5076313;28;20197;-71
2022/09/18 11:31:59;;;;;;;2.50;2.28;;;;;;;13.82;50.54;94770.66;5077186;28;20201;-70
2022/09/18 11:34:29;;;;;;;2.30;2.10;;;;;;;13.75;49.76;94767.81;5076160;28;20201;-71
2022/09/18 11:37:01;;;;;;;2.63;2.42;;;;;;;13.79;50.53;94765.88;5075881;28;20200;-71
2022/09/18 11:39:33;;;;;;;3.25;2.95;;;;;;;13.82;51.50;94765.91;5076657;28;20196;-71
2022/09/18 11:42:00;;;;;;;2.97;2.60;;;;;;;13.87;50.76;94784.97;5076662;28;20226;-70
2022/09/18 11:44:30;;;;;;;2.50;2.30;;;;;;;13.92;51.04;94772.75;5076798;28;20196;-71